sensor_id;sensor_type;location;lat;lon;timestamp;P1;durP1;ratioP1;P2;durP2;ratioP2
74213;SDS011;62576;55.694;37.494;2022-08-14T00:00:48;36.13;;;21.17;;
74213;SDS011;62576;55.694;37.494;2022-08-14T00:03:22;35.88;;;21.05;;
74213;SDS011;62576;55.694;37.494;2022-08-14T00:05:53;33.70;;;20.20;;
74213;SDS011;62576;55.694;37.494;2022-08-14T00:08:23;38.50;;;19.80;;
74213;SDS011;62576;55.694;37.494;2022-08-14T00:10:52;41.35;;;21.05;;
74213;SDS011;62576;55.694;37.494;2022-08-14T00:13:23;42.28;;;20.35;;
74213;SDS011;62576;55.694;37.494;2022-08-14T00:15:56;32.17;;;18.85;;
74213;SDS011;62576;55.694;37.494;2022-08-14T00:18:27;31.23;;;18.38;;
74213;SDS011;62576;55.694;37.494;2022-08-14T00:20:56;36.25;;;18.80;;
74213;SDS011;62576;55.694;37.494;2022-08-14T00:23:26;33.65;;;18.83;;
74213;SDS011;62576;55.694;37.494;2022-08-14T00:25:55;33.33;;;18.13;;
74213;SDS011;62576;55.694;37.494;2022-08-14T00:28:24;37.25;;;18.48;;
74213;SDS011;62576;55.694;37.494;2022-08-14T00:30:56;35.35;;;18.55;;
74213;SDS011;62576;55.694;37.494;2022-08-14T00:33:27;32.50;;;18.58;;
74213;SDS011;62576;55.694;37.494;2022-08-14T00:35:56;30.20;;;19.10;;
74213;SDS011;62576;55.694;37.494;2022-08-14T00:38:24;32.72;;;18.73;;
74213;SDS011;62576;55.694;37.494;2022-08-14T00:40:53;39.10;;;19.75;;
74213;SDS011;62576;55.694;37.494;2022-08-14T00:43:21;39.70;;;19.52;;
74213;SDS011;62576;55.694;37.494;2022-08-14T00:45:47;37.50;;;19.17;;
74213;SDS011;62576;55.694;37.494;2022-08-14T00:48:16;38.65;;;19.50;;
74213;SDS011;62576;55.694;37.494;2022-08-14T00:50:45;32.55;;;18.85;;
74213;SDS011;62576;55.694;37.494;2022-08-14T00:53:14;36.28;;;19.40;;
74213;SDS011;62576;55.694;37.494;2022-08-14T00:55:44;33.80;;;18.58;;
74213;SDS011;62576;55.694;37.494;2022-08-14T00:58:14;35.22;;;18.92;;
74213;SDS011;62576;55.694;37.494;2022-08-14T01:00:58;33.55;;;18.55;;
74213;SDS011;62576;55.694;37.494;2022-08-14T01:03:27;27.33;;;18.10;;
74213;SDS011;62576;55.694;37.494;2022-08-14T01:05:57;33.85;;;19.05;;
74213;SDS011;62576;55.694;37.494;2022-08-14T01:08:27;35.67;;;18.27;;
74213;SDS011;62576;55.694;37.494;2022-08-14T01:10:58;30.13;;;17.48;;
74213;SDS011;62576;55.694;37.494;2022-08-14T01:13:31;30.27;;;18.38;;
74213;SDS011;62576;55.694;37.494;2022-08-14T01:16:06;34.45;;;18.92;;
74213;SDS011;62576;55.694;37.494;2022-08-14T01:18:36;33.13;;;18.90;;
74213;SDS011;62576;55.694;37.494;2022-08-14T01:21:39;34.50;;;19.38;;
74213;SDS011;62576;55.694;37.494;2022-08-14T01:24:09;30.52;;;18.88;;
74213;SDS011;62576;55.694;37.494;2022-08-14T01:26:37;36.15;;;18.63;;
74213;SDS011;62576;55.694;37.494;2022-08-14T01:29:06;35.40;;;20.02;;
74213;SDS011;62576;55.694;37.494;2022-08-14T01:31:35;33.50;;;19.48;;
74213;SDS011;62576;55.694;37.494;2022-08-14T01:34:26;31.83;;;19.55;;
74213;SDS011;62576;55.694;37.494;2022-08-14T01:36:54;33.05;;;18.95;;
74213;SDS011;62576;55.694;37.494;2022-08-14T01:39:23;30.92;;;19.00;;
74213;SDS011;62576;55.694;37.494;2022-08-14T01:41:55;31.92;;;19.42;;
74213;SDS011;62576;55.694;37.494;2022-08-14T01:44:28;33.38;;;19.60;;
74213;SDS011;62576;55.694;37.494;2022-08-14T01:47:00;32.17;;;19.42;;
74213;SDS011;62576;55.694;37.494;2022-08-14T01:49:39;35.45;;;18.63;;
74213;SDS011;62576;55.694;37.494;2022-08-14T01:52:08;34.58;;;19.30;;
74213;SDS011;62576;55.694;37.494;2022-08-14T01:54:37;35.42;;;19.75;;
74213;SDS011;62576;55.694;37.494;2022-08-14T01:57:08;36.40;;;19.48;;
74213;SDS011;62576;55.694;37.494;2022-08-14T01:59:38;38.67;;;20.65;;
74213;SDS011;62576;55.694;37.494;2022-08-14T02:02:11;38.17;;;20.88;;
74213;SDS011;62576;55.694;37.494;2022-08-14T02:04:41;33.70;;;19.83;;
74213;SDS011;62576;55.694;37.494;2022-08-14T02:07:09;41.65;;;21.30;;
74213;SDS011;62576;55.694;37.494;2022-08-14T02:09:38;36.92;;;20.23;;
74213;SDS011;62576;55.694;37.494;2022-08-14T02:12:09;30.73;;;19.63;;
74213;SDS011;62576;55.694;37.494;2022-08-14T02:14:37;30.83;;;18.70;;
74213;SDS011;62576;55.694;37.494;2022-08-14T02:17:07;31.67;;;18.13;;
74213;SDS011;62576;55.694;37.494;2022-08-14T02:19:36;33.45;;;17.65;;
74213;SDS011;62576;55.694;37.494;2022-08-14T02:22:05;27.70;;;16.40;;
74213;SDS011;62576;55.694;37.494;2022-08-14T02:24:33;25.73;;;16.23;;
74213;SDS011;62576;55.694;37.494;2022-08-14T02:27:02;27.38;;;15.70;;
74213;SDS011;62576;55.694;37.494;2022-08-14T02:29:32;27.83;;;15.80;;
74213;SDS011;62576;55.694;37.494;2022-08-14T02:32:00;29.42;;;16.60;;
74213;SDS011;62576;55.694;37.494;2022-08-14T02:34:33;29.38;;;15.95;;
74213;SDS011;62576;55.694;37.494;2022-08-14T02:37:05;27.27;;;15.80;;
74213;SDS011;62576;55.694;37.494;2022-08-14T02:39:37;24.90;;;15.18;;
74213;SDS011;62576;55.694;37.494;2022-08-14T02:42:12;29.85;;;15.75;;
74213;SDS011;62576;55.694;37.494;2022-08-14T02:44:41;27.65;;;15.30;;
74213;SDS011;62576;55.694;37.494;2022-08-14T02:47:11;32.75;;;15.13;;
74213;SDS011;62576;55.694;37.494;2022-08-14T02:49:40;23.33;;;15.23;;
74213;SDS011;62576;55.694;37.494;2022-08-14T02:52:08;31.98;;;15.27;;
74213;SDS011;62576;55.694;37.494;2022-08-14T02:54:37;26.08;;;14.55;;
74213;SDS011;62576;55.694;37.494;2022-08-14T02:57:09;22.73;;;14.20;;
74213;SDS011;62576;55.694;37.494;2022-08-14T02:59:38;25.23;;;14.70;;
74213;SDS011;62576;55.694;37.494;2022-08-14T03:02:08;25.50;;;14.15;;
74213;SDS011;62576;55.694;37.494;2022-08-14T03:04:36;22.83;;;14.38;;
74213;SDS011;62576;55.694;37.494;2022-08-14T03:07:06;24.40;;;14.02;;
74213;SDS011;62576;55.694;37.494;2022-08-14T03:09:36;23.42;;;13.70;;
74213;SDS011;62576;55.694;37.494;2022-08-14T03:12:06;27.75;;;13.45;;
74213;SDS011;62576;55.694;37.494;2022-08-14T03:14:38;27.98;;;13.80;;
74213;SDS011;62576;55.694;37.494;2022-08-14T03:17:12;26.85;;;14.40;;
74213;SDS011;62576;55.694;37.494;2022-08-14T03:19:42;24.63;;;14.00;;
74213;SDS011;62576;55.694;37.494;2022-08-14T03:22:10;24.55;;;15.00;;
74213;SDS011;62576;55.694;37.494;2022-08-14T03:24:39;28.50;;;14.88;;
74213;SDS011;62576;55.694;37.494;2022-08-14T03:27:08;26.20;;;14.70;;
74213;SDS011;62576;55.694;37.494;2022-08-14T03:29:37;26.52;;;14.48;;
74213;SDS011;62576;55.694;37.494;2022-08-14T03:32:06;28.15;;;14.60;;
74213;SDS011;62576;55.694;37.494;2022-08-14T03:34:35;27.23;;;15.45;;
74213;SDS011;62576;55.694;37.494;2022-08-14T03:37:04;25.75;;;15.45;;
74213;SDS011;62576;55.694;37.494;2022-08-14T03:39:35;29.02;;;15.00;;
74213;SDS011;62576;55.694;37.494;2022-08-14T03:42:04;28.25;;;14.98;;
74213;SDS011;62576;55.694;37.494;2022-08-14T03:44:33;26.80;;;16.00;;
74213;SDS011;62576;55.694;37.494;2022-08-14T03:47:02;28.45;;;15.55;;
74213;SDS011;62576;55.694;37.494;2022-08-14T03:49:31;28.38;;;15.15;;
74213;SDS011;62576;55.694;37.494;2022-08-14T03:51:59;28.90;;;15.65;;
74213;SDS011;62576;55.694;37.494;2022-08-14T03:54:31;30.48;;;15.95;;
74213;SDS011;62576;55.694;37.494;2022-08-14T03:57:05;28.20;;;15.27;;
74213;SDS011;62576;55.694;37.494;2022-08-14T03:59:33;27.58;;;15.48;;
74213;SDS011;62576;55.694;37.494;2022-08-14T04:02:03;26.48;;;15.77;;
74213;SDS011;62576;55.694;37.494;2022-08-14T04:04:32;29.55;;;14.80;;
74213;SDS011;62576;55.694;37.494;2022-08-14T04:07:00;25.88;;;14.35;;
74213;SDS011;62576;55.694;37.494;2022-08-14T04:09:29;26.27;;;14.32;;
74213;SDS011;62576;55.694;37.494;2022-08-14T04:11:57;24.58;;;14.30;;
74213;SDS011;62576;55.694;37.494;2022-08-14T04:14:26;23.33;;;13.98;;
74213;SDS011;62576;55.694;37.494;2022-08-14T04:16:56;24.02;;;13.88;;
74213;SDS011;62576;55.694;37.494;2022-08-14T04:19:24;27.75;;;14.13;;
74213;SDS011;62576;55.694;37.494;2022-08-14T04:21:52;25.20;;;13.75;;
74213;SDS011;62576;55.694;37.494;2022-08-14T04:24:21;28.50;;;14.40;;
74213;SDS011;62576;55.694;37.494;2022-08-14T04:26:49;26.15;;;14.35;;
74213;SDS011;62576;55.694;37.494;2022-08-14T04:29:18;23.77;;;13.82;;
74213;SDS011;62576;55.694;37.494;2022-08-14T04:31:47;25.48;;;15.18;;
74213;SDS011;62576;55.694;37.494;2022-08-14T04:34:18;23.60;;;14.05;;
74213;SDS011;62576;55.694;37.494;2022-08-14T04:36:46;26.52;;;14.73;;
74213;SDS011;62576;55.694;37.494;2022-08-14T04:39:34;26.05;;;14.70;;
74213;SDS011;62576;55.694;37.494;2022-08-14T04:42:20;21.20;;;14.32;;
74213;SDS011;62576;55.694;37.494;2022-08-14T04:45:05;25.58;;;14.15;;
74213;SDS011;62576;55.694;37.494;2022-08-14T04:47:34;25.48;;;14.68;;
74213;SDS011;62576;55.694;37.494;2022-08-14T04:50:21;23.33;;;13.48;;
74213;SDS011;62576;55.694;37.494;2022-08-14T04:52:49;24.80;;;13.35;;
74213;SDS011;62576;55.694;37.494;2022-08-14T04:55:18;26.15;;;13.02;;
74213;SDS011;62576;55.694;37.494;2022-08-14T04:57:47;22.25;;;12.60;;
74213;SDS011;62576;55.694;37.494;2022-08-14T05:00:16;20.52;;;12.88;;
74213;SDS011;62576;55.694;37.494;2022-08-14T05:02:44;23.38;;;12.07;;
74213;SDS011;62576;55.694;37.494;2022-08-14T05:05:13;18.05;;;11.75;;
74213;SDS011;62576;55.694;37.494;2022-08-14T05:07:41;19.77;;;11.65;;
74213;SDS011;62576;55.694;37.494;2022-08-14T05:10:10;23.60;;;12.07;;
74213;SDS011;62576;55.694;37.494;2022-08-14T05:12:39;24.23;;;11.77;;
74213;SDS011;62576;55.694;37.494;2022-08-14T05:15:08;23.50;;;11.23;;
74213;SDS011;62576;55.694;37.494;2022-08-14T05:17:41;20.88;;;11.63;;
74213;SDS011;62576;55.694;37.494;2022-08-14T05:20:10;18.15;;;11.00;;
74213;SDS011;62576;55.694;37.494;2022-08-14T05:22:39;19.23;;;11.35;;
74213;SDS011;62576;55.694;37.494;2022-08-14T05:25:07;18.83;;;11.25;;
74213;SDS011;62576;55.694;37.494;2022-08-14T05:27:36;21.08;;;10.95;;
74213;SDS011;62576;55.694;37.494;2022-08-14T05:30:05;18.08;;;10.60;;
74213;SDS011;62576;55.694;37.494;2022-08-14T05:32:34;18.98;;;11.18;;
74213;SDS011;62576;55.694;37.494;2022-08-14T05:35:03;20.50;;;10.23;;
74213;SDS011;62576;55.694;37.494;2022-08-14T05:37:32;18.65;;;10.73;;
74213;SDS011;62576;55.694;37.494;2022-08-14T05:40:01;20.30;;;9.93;;
74213;SDS011;62576;55.694;37.494;2022-08-14T05:42:29;16.90;;;9.20;;
74213;SDS011;62576;55.694;37.494;2022-08-14T05:44:57;15.55;;;9.75;;
74213;SDS011;62576;55.694;37.494;2022-08-14T05:47:26;19.88;;;9.75;;
74213;SDS011;62576;55.694;37.494;2022-08-14T05:49:55;14.40;;;9.63;;
74213;SDS011;62576;55.694;37.494;2022-08-14T05:52:25;16.13;;;9.90;;
74213;SDS011;62576;55.694;37.494;2022-08-14T05:54:54;20.63;;;10.38;;
74213;SDS011;62576;55.694;37.494;2022-08-14T05:57:22;18.83;;;9.68;;
74213;SDS011;62576;55.694;37.494;2022-08-14T05:59:51;16.73;;;9.48;;
74213;SDS011;62576;55.694;37.494;2022-08-14T06:02:19;15.40;;;8.98;;
74213;SDS011;62576;55.694;37.494;2022-08-14T06:04:48;15.27;;;8.38;;
74213;SDS011;62576;55.694;37.494;2022-08-14T06:07:17;21.63;;;9.00;;
74213;SDS011;62576;55.694;37.494;2022-08-14T06:09:45;19.52;;;8.65;;
74213;SDS011;62576;55.694;37.494;2022-08-14T06:12:14;19.20;;;8.00;;
74213;SDS011;62576;55.694;37.494;2022-08-14T06:14:42;16.00;;;8.18;;
74213;SDS011;62576;55.694;37.494;2022-08-14T06:17:10;12.30;;;7.15;;
74213;SDS011;62576;55.694;37.494;2022-08-14T06:19:38;11.73;;;7.03;;
74213;SDS011;62576;55.694;37.494;2022-08-14T06:22:07;9.00;;;6.30;;
74213;SDS011;62576;55.694;37.494;2022-08-14T06:24:35;11.98;;;6.88;;
74213;SDS011;62576;55.694;37.494;2022-08-14T06:27:04;13.25;;;6.93;;
74213;SDS011;62576;55.694;37.494;2022-08-14T06:29:32;12.27;;;6.90;;
74213;SDS011;62576;55.694;37.494;2022-08-14T06:31:58;11.15;;;6.28;;
74213;SDS011;62576;55.694;37.494;2022-08-14T06:34:27;12.15;;;7.00;;
74213;SDS011;62576;55.694;37.494;2022-08-14T06:36:56;13.35;;;6.80;;
74213;SDS011;62576;55.694;37.494;2022-08-14T06:39:24;13.65;;;7.05;;
74213;SDS011;62576;55.694;37.494;2022-08-14T06:41:52;12.70;;;6.25;;
74213;SDS011;62576;55.694;37.494;2022-08-14T06:44:21;10.73;;;7.10;;
74213;SDS011;62576;55.694;37.494;2022-08-14T06:46:49;11.93;;;5.80;;
74213;SDS011;62576;55.694;37.494;2022-08-14T06:49:18;9.70;;;5.72;;
74213;SDS011;62576;55.694;37.494;2022-08-14T06:51:46;11.15;;;5.90;;
74213;SDS011;62576;55.694;37.494;2022-08-14T06:54:15;11.85;;;6.25;;
74213;SDS011;62576;55.694;37.494;2022-08-14T06:56:43;9.77;;;5.90;;
74213;SDS011;62576;55.694;37.494;2022-08-14T06:59:15;10.00;;;5.72;;
74213;SDS011;62576;55.694;37.494;2022-08-14T07:01:43;9.13;;;5.68;;
74213;SDS011;62576;55.694;37.494;2022-08-14T07:04:30;12.13;;;5.55;;
74213;SDS011;62576;55.694;37.494;2022-08-14T07:07:17;9.95;;;5.13;;
74213;SDS011;62576;55.694;37.494;2022-08-14T07:09:46;11.82;;;6.10;;
74213;SDS011;62576;55.694;37.494;2022-08-14T07:12:14;12.25;;;6.75;;
74213;SDS011;62576;55.694;37.494;2022-08-14T07:14:43;7.43;;;5.43;;
74213;SDS011;62576;55.694;37.494;2022-08-14T07:17:12;11.77;;;5.53;;
74213;SDS011;62576;55.694;37.494;2022-08-14T07:19:40;10.63;;;5.72;;
74213;SDS011;62576;55.694;37.494;2022-08-14T07:22:08;9.80;;;5.80;;
74213;SDS011;62576;55.694;37.494;2022-08-14T07:24:38;14.23;;;6.00;;
74213;SDS011;62576;55.694;37.494;2022-08-14T07:27:06;8.30;;;5.18;;
74213;SDS011;62576;55.694;37.494;2022-08-14T07:29:34;14.75;;;5.60;;
74213;SDS011;62576;55.694;37.494;2022-08-14T07:32:03;11.50;;;5.43;;
74213;SDS011;62576;55.694;37.494;2022-08-14T07:34:31;10.27;;;5.25;;
74213;SDS011;62576;55.694;37.494;2022-08-14T07:37:00;12.23;;;6.20;;
74213;SDS011;62576;55.694;37.494;2022-08-14T07:39:28;9.93;;;5.50;;
74213;SDS011;62576;55.694;37.494;2022-08-14T07:41:57;13.40;;;6.45;;
74213;SDS011;62576;55.694;37.494;2022-08-14T07:44:26;9.77;;;5.95;;
74213;SDS011;62576;55.694;37.494;2022-08-14T07:46:54;10.02;;;5.95;;
74213;SDS011;62576;55.694;37.494;2022-08-14T07:49:22;6.40;;;5.15;;
74213;SDS011;62576;55.694;37.494;2022-08-14T07:51:52;8.48;;;5.28;;
74213;SDS011;62576;55.694;37.494;2022-08-14T07:54:21;8.15;;;4.72;;
74213;SDS011;62576;55.694;37.494;2022-08-14T07:56:50;6.38;;;4.90;;
74213;SDS011;62576;55.694;37.494;2022-08-14T07:59:18;8.82;;;5.00;;
74213;SDS011;62576;55.694;37.494;2022-08-14T08:01:49;7.30;;;5.18;;
74213;SDS011;62576;55.694;37.494;2022-08-14T08:04:21;7.60;;;4.97;;
74213;SDS011;62576;55.694;37.494;2022-08-14T08:06:51;9.23;;;5.10;;
74213;SDS011;62576;55.694;37.494;2022-08-14T08:09:24;9.10;;;4.80;;
74213;SDS011;62576;55.694;37.494;2022-08-14T08:11:54;9.02;;;4.78;;
74213;SDS011;62576;55.694;37.494;2022-08-14T08:14:23;7.18;;;4.75;;
74213;SDS011;62576;55.694;37.494;2022-08-14T08:16:52;8.40;;;5.05;;
74213;SDS011;62576;55.694;37.494;2022-08-14T08:19:22;6.47;;;4.32;;
74213;SDS011;62576;55.694;37.494;2022-08-14T08:21:52;7.82;;;4.80;;
74213;SDS011;62576;55.694;37.494;2022-08-14T08:24:21;10.20;;;5.00;;
74213;SDS011;62576;55.694;37.494;2022-08-14T08:26:59;7.57;;;4.45;;
74213;SDS011;62576;55.694;37.494;2022-08-14T08:29:28;9.32;;;4.60;;
74213;SDS011;62576;55.694;37.494;2022-08-14T08:31:57;9.18;;;4.88;;
74213;SDS011;62576;55.694;37.494;2022-08-14T08:34:26;7.72;;;4.70;;
74213;SDS011;62576;55.694;37.494;2022-08-14T08:36:57;7.13;;;4.78;;
74213;SDS011;62576;55.694;37.494;2022-08-14T08:39:26;6.60;;;4.90;;
74213;SDS011;62576;55.694;37.494;2022-08-14T08:41:54;6.63;;;4.55;;
74213;SDS011;62576;55.694;37.494;2022-08-14T08:44:28;7.13;;;4.85;;
74213;SDS011;62576;55.694;37.494;2022-08-14T08:46:57;8.95;;;5.30;;
74213;SDS011;62576;55.694;37.494;2022-08-14T08:49:42;8.30;;;5.25;;
74213;SDS011;62576;55.694;37.494;2022-08-14T08:52:10;5.65;;;4.97;;
74213;SDS011;62576;55.694;37.494;2022-08-14T08:54:39;7.45;;;5.18;;
74213;SDS011;62576;55.694;37.494;2022-08-14T08:57:11;5.75;;;4.80;;
74213;SDS011;62576;55.694;37.494;2022-08-14T08:59:40;8.95;;;5.10;;
74213;SDS011;62576;55.694;37.494;2022-08-14T09:02:09;9.07;;;5.90;;
74213;SDS011;62576;55.694;37.494;2022-08-14T09:04:38;8.93;;;4.90;;
74213;SDS011;62576;55.694;37.494;2022-08-14T09:07:10;7.10;;;5.13;;
74213;SDS011;62576;55.694;37.494;2022-08-14T09:09:39;9.57;;;5.07;;
74213;SDS011;62576;55.694;37.494;2022-08-14T09:12:20;7.47;;;5.00;;
74213;SDS011;62576;55.694;37.494;2022-08-14T09:14:49;6.65;;;5.00;;
74213;SDS011;62576;55.694;37.494;2022-08-14T09:17:20;8.17;;;4.90;;
74213;SDS011;62576;55.694;37.494;2022-08-14T09:19:48;5.65;;;4.85;;
74213;SDS011;62576;55.694;37.494;2022-08-14T09:22:17;6.35;;;5.07;;
74213;SDS011;62576;55.694;37.494;2022-08-14T09:24:43;9.43;;;5.65;;
74213;SDS011;62576;55.694;37.494;2022-08-14T09:27:14;7.78;;;5.45;;
74213;SDS011;62576;55.694;37.494;2022-08-14T09:29:42;7.50;;;5.60;;
74213;SDS011;62576;55.694;37.494;2022-08-14T09:32:11;9.13;;;6.00;;
74213;SDS011;62576;55.694;37.494;2022-08-14T09:38:01;9.88;;;6.25;;
74213;SDS011;62576;55.694;37.494;2022-08-14T09:40:43;10.20;;;6.00;;
74213;SDS011;62576;55.694;37.494;2022-08-14T09:43:30;8.23;;;6.05;;
74213;SDS011;62576;55.694;37.494;2022-08-14T09:46:08;11.85;;;6.40;;
74213;SDS011;62576;55.694;37.494;2022-08-14T09:48:37;8.82;;;6.13;;
74213;SDS011;62576;55.694;37.494;2022-08-14T09:51:05;9.73;;;5.97;;
74213;SDS011;62576;55.694;37.494;2022-08-14T09:53:43;7.75;;;6.25;;
74213;SDS011;62576;55.694;37.494;2022-08-14T09:56:26;7.43;;;6.10;;
74213;SDS011;62576;55.694;37.494;2022-08-14T09:58:56;10.52;;;6.13;;
74213;SDS011;62576;55.694;37.494;2022-08-14T10:01:34;8.82;;;6.20;;
74213;SDS011;62576;55.694;37.494;2022-08-14T10:04:05;9.98;;;5.90;;
74213;SDS011;62576;55.694;37.494;2022-08-14T10:06:46;10.38;;;6.00;;
74213;SDS011;62576;55.694;37.494;2022-08-14T10:09:14;16.85;;;6.10;;
74213;SDS011;62576;55.694;37.494;2022-08-14T10:11:52;8.02;;;6.57;;
74213;SDS011;62576;55.694;37.494;2022-08-14T10:14:27;10.25;;;6.50;;
74213;SDS011;62576;55.694;37.494;2022-08-14T10:16:57;10.27;;;6.03;;
74213;SDS011;62576;55.694;37.494;2022-08-14T10:19:26;11.20;;;6.13;;
74213;SDS011;62576;55.694;37.494;2022-08-14T10:21:57;10.63;;;6.55;;
74213;SDS011;62576;55.694;37.494;2022-08-14T10:24:36;10.23;;;6.50;;
74213;SDS011;62576;55.694;37.494;2022-08-14T10:27:15;10.52;;;6.45;;
74213;SDS011;62576;55.694;37.494;2022-08-14T10:29:49;10.25;;;6.65;;
74213;SDS011;62576;55.694;37.494;2022-08-14T10:32:20;12.23;;;7.07;;
74213;SDS011;62576;55.694;37.494;2022-08-14T10:34:50;13.20;;;6.80;;
74213;SDS011;62576;55.694;37.494;2022-08-14T10:37:18;9.90;;;6.88;;
74213;SDS011;62576;55.694;37.494;2022-08-14T10:39:57;11.48;;;7.10;;
74213;SDS011;62576;55.694;37.494;2022-08-14T10:42:42;9.13;;;6.90;;
74213;SDS011;62576;55.694;37.494;2022-08-14T10:45:30;10.65;;;6.70;;
74213;SDS011;62576;55.694;37.494;2022-08-14T10:48:00;9.90;;;6.55;;
74213;SDS011;62576;55.694;37.494;2022-08-14T10:50:29;9.20;;;6.50;;
74213;SDS011;62576;55.694;37.494;2022-08-14T10:52:59;11.40;;;7.18;;
74213;SDS011;62576;55.694;37.494;2022-08-14T10:55:34;10.23;;;7.15;;
74213;SDS011;62576;55.694;37.494;2022-08-14T10:58:07;11.88;;;7.13;;
74213;SDS011;62576;55.694;37.494;2022-08-14T11:00:39;7.72;;;6.78;;
74213;SDS011;62576;55.694;37.494;2022-08-14T11:03:10;12.48;;;8.00;;
74213;SDS011;62576;55.694;37.494;2022-08-14T11:05:45;11.90;;;7.10;;
74213;SDS011;62576;55.694;37.494;2022-08-14T11:08:16;10.45;;;7.75;;
74213;SDS011;62576;55.694;37.494;2022-08-14T11:10:57;14.40;;;7.10;;
74213;SDS011;62576;55.694;37.494;2022-08-14T11:13:28;10.05;;;7.38;;
74213;SDS011;62576;55.694;37.494;2022-08-14T11:15:59;9.38;;;7.35;;
74213;SDS011;62576;55.694;37.494;2022-08-14T11:18:29;14.77;;;6.80;;
74213;SDS011;62576;55.694;37.494;2022-08-14T11:20:59;8.80;;;7.35;;
74213;SDS011;62576;55.694;37.494;2022-08-14T11:23:33;9.82;;;6.95;;
74213;SDS011;62576;55.694;37.494;2022-08-14T11:26:03;9.75;;;7.10;;
74213;SDS011;62576;55.694;37.494;2022-08-14T11:28:37;9.75;;;7.00;;
74213;SDS011;62576;55.694;37.494;2022-08-14T11:31:08;8.68;;;7.18;;
74213;SDS011;62576;55.694;37.494;2022-08-14T11:33:38;12.10;;;7.30;;
74213;SDS011;62576;55.694;37.494;2022-08-14T11:36:09;11.63;;;7.47;;
74213;SDS011;62576;55.694;37.494;2022-08-14T11:38:39;10.00;;;6.70;;
74213;SDS011;62576;55.694;37.494;2022-08-14T11:41:10;11.50;;;6.90;;
74213;SDS011;62576;55.694;37.494;2022-08-14T11:43:40;17.08;;;7.15;;
74213;SDS011;62576;55.694;37.494;2022-08-14T11:46:10;13.17;;;7.67;;
74213;SDS011;62576;55.694;37.494;2022-08-14T11:48:47;10.07;;;6.90;;
74213;SDS011;62576;55.694;37.494;2022-08-14T11:51:18;12.90;;;7.50;;
74213;SDS011;62576;55.694;37.494;2022-08-14T11:53:52;13.13;;;6.80;;
74213;SDS011;62576;55.694;37.494;2022-08-14T11:56:21;13.23;;;7.13;;
74213;SDS011;62576;55.694;37.494;2022-08-14T11:58:51;9.82;;;6.75;;
74213;SDS011;62576;55.694;37.494;2022-08-14T12:01:25;11.25;;;7.15;;
74213;SDS011;62576;55.694;37.494;2022-08-14T12:04:06;11.77;;;7.40;;
74213;SDS011;62576;55.694;37.494;2022-08-14T12:06:46;8.45;;;6.93;;
74213;SDS011;62576;55.694;37.494;2022-08-14T12:09:29;11.93;;;7.28;;
74213;SDS011;62576;55.694;37.494;2022-08-14T12:12:00;8.95;;;6.97;;
74213;SDS011;62576;55.694;37.494;2022-08-14T12:14:46;10.88;;;7.07;;
74213;SDS011;62576;55.694;37.494;2022-08-14T12:17:48;12.88;;;7.43;;
74213;SDS011;62576;55.694;37.494;2022-08-14T12:20:17;11.25;;;7.10;;
74213;SDS011;62576;55.694;37.494;2022-08-14T12:22:55;9.35;;;7.50;;
74213;SDS011;62576;55.694;37.494;2022-08-14T12:25:21;11.60;;;8.05;;
74213;SDS011;62576;55.694;37.494;2022-08-14T12:27:51;10.00;;;7.68;;
74213;SDS011;62576;55.694;37.494;2022-08-14T12:30:25;15.30;;;7.63;;
74213;SDS011;62576;55.694;37.494;2022-08-14T12:33:05;13.57;;;7.40;;
74213;SDS011;62576;55.694;37.494;2022-08-14T12:35:48;14.25;;;8.38;;
74213;SDS011;62576;55.694;37.494;2022-08-14T12:38:17;10.85;;;8.25;;
74213;SDS011;62576;55.694;37.494;2022-08-14T12:40:47;9.07;;;7.68;;
74213;SDS011;62576;55.694;37.494;2022-08-14T12:43:17;11.32;;;8.13;;
74213;SDS011;62576;55.694;37.494;2022-08-14T12:45:49;14.45;;;7.90;;
74213;SDS011;62576;55.694;37.494;2022-08-14T12:48:22;12.98;;;7.60;;
74213;SDS011;62576;55.694;37.494;2022-08-14T12:50:51;12.02;;;7.88;;
74213;SDS011;62576;55.694;37.494;2022-08-14T12:53:20;10.82;;;7.50;;
74213;SDS011;62576;55.694;37.494;2022-08-14T12:55:57;9.73;;;6.88;;
74213;SDS011;62576;55.694;37.494;2022-08-14T12:58:27;12.68;;;7.40;;
74213;SDS011;62576;55.694;37.494;2022-08-14T13:00:56;10.52;;;7.43;;
74213;SDS011;62576;55.694;37.494;2022-08-14T13:03:26;8.45;;;6.90;;
74213;SDS011;62576;55.694;37.494;2022-08-14T13:05:55;12.90;;;7.32;;
74213;SDS011;62576;55.694;37.494;2022-08-14T13:08:24;8.93;;;7.00;;
74213;SDS011;62576;55.694;37.494;2022-08-14T13:10:53;12.38;;;7.15;;
74213;SDS011;62576;55.694;37.494;2022-08-14T13:13:24;9.63;;;7.25;;
74213;SDS011;62576;55.694;37.494;2022-08-14T13:16:00;11.30;;;6.93;;
74213;SDS011;62576;55.694;37.494;2022-08-14T13:18:29;10.68;;;7.50;;
74213;SDS011;62576;55.694;37.494;2022-08-14T13:21:00;10.10;;;7.03;;
74213;SDS011;62576;55.694;37.494;2022-08-14T13:23:32;12.68;;;7.00;;
74213;SDS011;62576;55.694;37.494;2022-08-14T13:26:01;15.25;;;6.85;;
74213;SDS011;62576;55.694;37.494;2022-08-14T13:28:31;9.90;;;7.05;;
74213;SDS011;62576;55.694;37.494;2022-08-14T13:31:02;9.00;;;6.90;;
74213;SDS011;62576;55.694;37.494;2022-08-14T13:33:32;10.90;;;6.80;;
74213;SDS011;62576;55.694;37.494;2022-08-14T13:36:03;16.05;;;7.22;;
74213;SDS011;62576;55.694;37.494;2022-08-14T13:38:31;8.35;;;7.10;;
74213;SDS011;62576;55.694;37.494;2022-08-14T13:41:00;12.80;;;6.95;;
74213;SDS011;62576;55.694;37.494;2022-08-14T13:43:29;10.35;;;6.70;;
74213;SDS011;62576;55.694;37.494;2022-08-14T13:45:58;10.25;;;6.80;;
74213;SDS011;62576;55.694;37.494;2022-08-14T13:48:26;8.95;;;6.95;;
74213;SDS011;62576;55.694;37.494;2022-08-14T13:50:55;16.15;;;6.88;;
74213;SDS011;62576;55.694;37.494;2022-08-14T13:53:26;9.45;;;6.68;;
74213;SDS011;62576;55.694;37.494;2022-08-14T13:55:56;12.27;;;7.40;;
74213;SDS011;62576;55.694;37.494;2022-08-14T13:58:25;10.05;;;7.05;;
74213;SDS011;62576;55.694;37.494;2022-08-14T14:00:56;12.32;;;7.07;;
74213;SDS011;62576;55.694;37.494;2022-08-14T14:03:25;10.85;;;6.97;;
74213;SDS011;62576;55.694;37.494;2022-08-14T14:05:54;12.38;;;6.85;;
74213;SDS011;62576;55.694;37.494;2022-08-14T14:08:23;11.18;;;7.28;;
74213;SDS011;62576;55.694;37.494;2022-08-14T14:10:52;11.95;;;7.20;;
74213;SDS011;62576;55.694;37.494;2022-08-14T14:13:23;12.77;;;7.35;;
74213;SDS011;62576;55.694;37.494;2022-08-14T14:15:52;12.07;;;6.90;;
74213;SDS011;62576;55.694;37.494;2022-08-14T14:18:24;12.35;;;7.30;;
74213;SDS011;62576;55.694;37.494;2022-08-14T14:20:54;13.25;;;7.38;;
74213;SDS011;62576;55.694;37.494;2022-08-14T14:23:24;8.70;;;6.78;;
74213;SDS011;62576;55.694;37.494;2022-08-14T14:25:54;9.40;;;6.78;;
74213;SDS011;62576;55.694;37.494;2022-08-14T14:28:25;11.68;;;6.75;;
74213;SDS011;62576;55.694;37.494;2022-08-14T14:31:00;12.65;;;7.00;;
74213;SDS011;62576;55.694;37.494;2022-08-14T14:33:29;9.57;;;6.60;;
74213;SDS011;62576;55.694;37.494;2022-08-14T14:36:01;9.10;;;6.70;;
74213;SDS011;62576;55.694;37.494;2022-08-14T14:38:32;10.38;;;6.40;;
74213;SDS011;62576;55.694;37.494;2022-08-14T14:41:01;9.57;;;6.57;;
74213;SDS011;62576;55.694;37.494;2022-08-14T14:43:30;12.35;;;6.70;;
74213;SDS011;62576;55.694;37.494;2022-08-14T14:46:02;9.48;;;6.90;;